createdAt,value
2022-08-11T00:01:15.077Z,101158.94
2022-08-11T00:03:49.742Z,101161.00
2022-08-11T00:06:27.187Z,101159.56
2022-08-11T00:08:56.353Z,101174.44
2022-08-11T00:11:33.969Z,101166.94
2022-08-11T00:14:04.248Z,101166.72
2022-08-11T00:16:33.047Z,101012.97
2022-08-11T00:19:02.458Z,101079.00
2022-08-11T00:22:03.011Z,101170.47
2022-08-11T00:24:23.241Z,101021.94
2022-08-11T00:26:53.010Z,101165.81
2022-08-11T00:29:22.246Z,101169.16
2022-08-11T00:31:52.958Z,101022.22
2022-08-11T00:34:24.922Z,101171.72
2022-08-11T00:36:58.457Z,101166.00
2022-08-11T00:39:29.328Z,101131.09
2022-08-11T00:42:11.038Z,101144.63
2022-08-11T00:44:54.374Z,101089.91
2022-08-11T00:47:36.447Z,101166.50
2022-08-11T00:50:18.292Z,101144.38
2022-08-11T00:53:03.554Z,101160.47
2022-08-11T00:55:58.789Z,101162.97
2022-08-11T00:59:01.271Z,101168.59
2022-08-11T01:01:48.390Z,101160.78
2022-08-11T01:04:57.385Z,101133.19
2022-08-11T01:08:01.609Z,101152.47
2022-08-11T01:10:54.061Z,101159.63
2022-08-11T01:13:48.287Z,101145.13
2022-08-11T01:16:40.351Z,101151.63
2022-08-11T01:20:45.452Z,100999.19
2022-08-11T01:23:07.352Z,101172.38
2022-08-11T01:26:02.624Z,101156.22
2022-08-11T01:29:03.936Z,101160.84
2022-08-11T01:32:01.925Z,101172.81
2022-08-11T01:35:14.237Z,101174.56
2022-08-11T01:38:15.893Z,101172.06
2022-08-11T01:41:13.866Z,101176.06
2022-08-11T01:44:31.778Z,101168.38
2022-08-11T01:47:37.741Z,101170.41
2022-08-11T01:50:36.741Z,101155.56
2022-08-11T01:53:22.838Z,101095.47
2022-08-11T01:56:02.213Z,101167.38
2022-08-11T01:58:43.712Z,101177.28
2022-08-11T02:01:29.761Z,101174.94
2022-08-11T02:04:08.906Z,101171.03
2022-08-11T02:06:58.414Z,101160.81
2022-08-11T02:09:49.811Z,101167.25
2022-08-11T02:12:35.810Z,101156.25
2022-08-11T02:15:16.061Z,101162.63
2022-08-11T02:18:01.472Z,101170.06
2022-08-11T02:21:08.571Z,101172.44
2022-08-11T02:24:03.793Z,101173.06
2022-08-11T02:26:41.877Z,101168.16
2022-08-11T02:29:19.796Z,101135.66
2022-08-11T02:32:24.570Z,100907.78
2022-08-11T02:35:05.372Z,101177.53
2022-08-11T02:37:49.827Z,101181.13
2022-08-11T02:40:28.499Z,101170.25
2022-08-11T02:43:06.603Z,101170.59
2022-08-11T02:45:46.292Z,101180.88
2022-08-11T02:48:49.275Z,101119.47
2022-08-11T02:51:26.707Z,101148.78
2022-08-11T02:54:05.466Z,101146.19
2022-08-11T02:56:52.403Z,101176.97
2022-08-11T02:59:54.495Z,101132.44
2022-08-11T03:02:34.668Z,101179.19
2022-08-11T03:05:13.823Z,101168.66
2022-08-11T03:07:53.019Z,101134.19
2022-08-11T03:10:24.808Z,100997.44
2022-08-11T03:13:19.926Z,101179.47
2022-08-11T03:16:10.745Z,101183.19
2022-08-11T03:18:44.047Z,101184.31
2022-08-11T03:21:22.004Z,101183.94
2022-08-11T03:24:01.553Z,101183.03
2022-08-11T03:26:44.235Z,101184.91
2022-08-11T03:29:25.084Z,101181.13
2022-08-11T03:32:03.096Z,101175.03
2022-08-11T03:34:32.831Z,101158.66
2022-08-11T03:37:34.643Z,101179.91
2022-08-11T03:40:12.672Z,101185.28
2022-08-11T03:42:48.296Z,101172.47
2022-08-11T03:45:26.989Z,101166.94
2022-08-11T03:48:18.105Z,101184.91
2022-08-11T03:50:59.160Z,101147.28
2022-08-11T03:53:56.053Z,101094.41
2022-08-11T03:57:03.375Z,101183.66
2022-08-11T04:00:17.481Z,101186.09
2022-08-11T04:03:31.175Z,101187.03
2022-08-11T04:06:50.158Z,101192.66
2022-08-11T04:10:08.545Z,101190.81
2022-08-11T04:13:01.007Z,101191.97
2022-08-11T04:16:12.120Z,101194.81
2022-08-11T04:19:33.326Z,101180.63
2022-08-11T04:22:40.540Z,101188.78
2022-08-11T04:25:31.194Z,101195.06
2022-08-11T04:28:34.796Z,101175.81
2022-08-11T04:31:50.783Z,101171.53
2022-08-11T04:34:43.807Z,101175.88
2022-08-11T04:37:34.332Z,101185.25
2022-08-11T04:40:40.525Z,101173.53
2022-08-11T04:44:02.618Z,101193.13
2022-08-11T04:47:03.716Z,101182.50
2022-08-11T04:50:11.364Z,101191.38
2022-08-11T04:53:21.874Z,101184.44
2022-08-11T04:56:25.911Z,101184.75
2022-08-11T04:59:30.491Z,101164.81
2022-08-11T05:02:34.517Z,101181.00
2022-08-11T05:05:32.689Z,101156.16
2022-08-11T05:08:43.382Z,101179.25
2022-08-11T05:11:36.691Z,101178.94
2022-08-11T05:14:46.009Z,101184.41
2022-08-11T05:17:40.404Z,101183.03
2022-08-11T05:20:30.525Z,101178.06
2022-08-11T05:23:22.661Z,101183.34
2022-08-11T05:26:46.598Z,101179.56
2022-08-11T05:29:21.454Z,101180.56
2022-08-11T05:32:14.108Z,101183.91
2022-08-11T05:34:52.889Z,101187.50
2022-08-11T05:37:27.887Z,101178.75
2022-08-11T05:40:18.620Z,101135.75
2022-08-11T05:43:09.395Z,101180.03
2022-08-11T05:46:02.487Z,101178.06
2022-08-11T05:48:52.850Z,101184.53
2022-08-11T05:51:39.551Z,101185.53
2022-08-11T05:54:39.948Z,101178.13
2022-08-11T05:57:09.056Z,101188.63
2022-08-11T05:59:37.911Z,101172.31
2022-08-11T06:02:08.655Z,101173.91
2022-08-11T06:04:38.256Z,101178.34
2022-08-11T06:07:09.473Z,101179.03
2022-08-11T06:09:47.995Z,101181.50
2022-08-11T06:12:21.237Z,101151.19
2022-08-11T06:14:52.305Z,101182.13
2022-08-11T06:17:25.395Z,101179.94
2022-08-11T06:20:07.203Z,101186.59
2022-08-11T06:22:36.554Z,101174.00
2022-08-11T06:25:07.870Z,101179.31
2022-08-11T06:27:38.341Z,101179.41
2022-08-11T06:30:13.540Z,101144.84
2022-08-11T06:32:44.713Z,101164.47
2022-08-11T06:35:23.008Z,101177.44
2022-08-11T06:38:16.152Z,101181.31
2022-08-11T06:41:08.451Z,101180.50
2022-08-11T06:43:56.052Z,101175.84
2022-08-11T06:46:29.730Z,101174.16
2022-08-11T06:48:58.118Z,101112.41
2022-08-11T06:51:27.043Z,101172.94
2022-08-11T06:54:04.938Z,101173.78
2022-08-11T06:57:28.290Z,101169.44
2022-08-11T07:00:01.998Z,101170.75
2022-08-11T07:02:35.015Z,101154.06
2022-08-11T07:05:08.440Z,101172.66
2022-08-11T07:08:35.288Z,101146.44
2022-08-11T07:11:42.603Z,101171.22
2022-08-11T07:14:33.893Z,101169.75
2022-08-11T07:17:09.111Z,101173.31
2022-08-11T07:19:59.479Z,101162.22
2022-08-11T07:22:50.143Z,101166.94
2022-08-11T07:25:36.060Z,101161.78
2022-08-11T07:28:23.028Z,101165.22
2022-08-11T07:30:59.817Z,101166.19
2022-08-11T07:34:07.070Z,101021.78
2022-08-11T07:36:31.241Z,101170.28
2022-08-11T07:38:59.907Z,101168.78
2022-08-11T07:41:32.772Z,101167.31
2022-08-11T07:44:09.195Z,101155.13
2022-08-11T07:46:58.594Z,101164.22
2022-08-11T07:49:45.380Z,101157.94
2022-08-11T07:52:33.698Z,101163.47
2022-08-11T07:55:06.229Z,101162.19
2022-08-11T07:58:14.683Z,101158.66
2022-08-11T08:01:03.867Z,101150.69
2022-08-11T08:03:58.256Z,101159.44
2022-08-11T08:06:45.803Z,101163.41
2022-08-11T08:09:32.221Z,101156.84
2022-08-11T08:12:20.558Z,101158.44
2022-08-11T08:15:05.764Z,101160.75
2022-08-11T08:18:09.696Z,101156.78
2022-08-11T08:20:50.099Z,101162.19
2022-08-11T08:23:33.040Z,101141.88
2022-08-11T08:26:04.413Z,101151.09
2022-08-11T08:28:34.691Z,101157.19
2022-08-11T08:31:02.321Z,101151.28
2022-08-11T08:33:33.195Z,101155.81
2022-08-11T08:36:17.061Z,101151.44
2022-08-11T08:38:49.759Z,101148.34
2022-08-11T08:41:22.000Z,101023.28
2022-08-11T08:43:55.817Z,101141.69
2022-08-11T08:46:33.560Z,101146.66
2022-08-11T08:49:03.741Z,101127.41
2022-08-11T08:51:57.883Z,101148.75
2022-08-11T08:54:30.503Z,101146.28
2022-08-11T08:56:59.081Z,101144.09
2022-08-11T08:59:49.248Z,101145.69
2022-08-11T09:02:18.330Z,101143.34
2022-08-11T09:04:48.115Z,101146.97
2022-08-11T09:07:19.426Z,101135.22
2022-08-11T09:09:49.952Z,101128.28
2022-08-11T09:12:38.310Z,101141.31
2022-08-11T09:15:10.605Z,101112.41
2022-08-11T09:17:42.846Z,101136.13
2022-08-11T09:20:14.538Z,101114.69
2022-08-11T09:23:54.606Z,101134.31
2022-08-11T09:26:11.104Z,101123.47
2022-08-11T09:28:42.975Z,101127.09
2022-08-11T09:31:13.507Z,101127.97
2022-08-11T09:33:43.804Z,101113.72
2022-08-11T09:36:31.787Z,101121.59
2022-08-11T09:39:19.196Z,101124.75
2022-08-11T09:42:01.845Z,101122.47
2022-08-11T09:44:48.719Z,101117.81
2022-08-11T09:47:25.539Z,101094.06
2022-08-11T09:50:00.199Z,101109.69
2022-08-11T09:52:31.924Z,101112.31
2022-08-11T09:55:05.050Z,101105.88
2022-08-11T09:57:50.980Z,101041.22
2022-08-11T10:00:19.126Z,101106.25
2022-08-11T10:02:50.039Z,101050.75
2022-08-11T10:05:37.607Z,101030.84
2022-08-11T10:08:08.475Z,101089.88
2022-08-11T10:10:40.339Z,101097.22
2022-08-11T10:14:03.785Z,101089.16
2022-08-11T10:16:16.373Z,101091.50
2022-08-11T10:18:53.400Z,101088.59
2022-08-11T10:21:37.814Z,101082.44
2022-08-11T10:24:26.195Z,101081.75
2022-08-11T10:27:00.356Z,101071.84
2022-08-11T10:29:50.253Z,101076.28
2022-08-11T10:32:57.585Z,101074.84
2022-08-11T10:35:30.624Z,101066.78
2022-08-11T10:38:06.771Z,101075.56
2022-08-11T10:40:40.099Z,101066.13
2022-08-11T10:43:14.342Z,101064.69
2022-08-11T10:46:05.416Z,101057.34
2022-08-11T10:48:38.601Z,101032.13
2022-08-11T10:51:14.746Z,101060.94
2022-08-11T10:54:04.085Z,101052.59
2022-08-11T10:56:53.793Z,101054.66
2022-08-11T10:59:24.381Z,101044.94
2022-08-11T11:01:54.873Z,101034.66
2022-08-11T11:04:31.185Z,101039.22
2022-08-11T11:07:06.905Z,101044.00
2022-08-11T11:09:45.460Z,101040.03
2022-08-11T11:12:36.221Z,101038.19
2022-08-11T11:15:25.608Z,101031.88
2022-08-11T11:18:01.440Z,101032.94
2022-08-11T11:20:37.886Z,101034.50
2022-08-11T11:23:11.303Z,101022.44
2022-08-11T11:26:10.432Z,101024.34
2022-08-11T11:29:07.976Z,101021.59
2022-08-11T11:31:53.021Z,101023.25
2022-08-11T11:34:53.049Z,101020.66
2022-08-11T11:37:23.711Z,101025.97
2022-08-11T11:39:51.770Z,101013.78
2022-08-11T11:42:21.512Z,101017.03
2022-08-11T11:44:54.153Z,101023.72
2022-08-11T11:47:26.127Z,101022.63
2022-08-11T11:49:54.484Z,101011.44
2022-08-11T11:52:23.800Z,101013.97
2022-08-11T11:54:56.500Z,101014.28
2022-08-11T11:57:43.233Z,101011.22
2022-08-11T12:00:44.491Z,101006.09
2022-08-11T12:03:15.244Z,101005.06
2022-08-11T12:05:44.925Z,100955.13
2022-08-11T12:08:17.095Z,101000.50
2022-08-11T12:10:48.254Z,100998.50
2022-08-11T12:13:35.341Z,100993.09
2022-08-11T12:16:33.612Z,100992.72
2022-08-11T12:18:57.626Z,100969.78
2022-08-11T12:21:26.386Z,100951.91
2022-08-11T12:24:15.039Z,100980.16
2022-08-11T12:27:15.985Z,100959.16
2022-08-11T12:29:52.766Z,100978.41
2022-08-11T12:32:24.374Z,100969.84
2022-08-11T12:34:58.153Z,100967.75
2022-08-11T12:37:31.380Z,100965.19
2022-08-11T12:40:43.301Z,100966.78
2022-08-11T12:43:38.325Z,100961.84
2022-08-11T12:46:09.521Z,100954.38
2022-08-11T12:49:02.163Z,100868.25
2022-08-11T12:52:11.035Z,100951.91
2022-08-11T12:54:51.546Z,100924.47
2022-08-11T12:57:44.365Z,100846.81
2022-08-11T13:00:31.734Z,100939.69
2022-08-11T13:03:18.064Z,100934.75
2022-08-11T13:05:49.786Z,100931.59
2022-08-11T13:08:21.630Z,100919.88
2022-08-11T13:11:09.945Z,100926.63
2022-08-11T13:13:53.438Z,100920.63
2022-08-11T13:16:25.232Z,100893.97
2022-08-11T13:18:53.917Z,100915.19
2022-08-11T13:21:23.376Z,100920.38
2022-08-11T13:24:00.243Z,100870.28
2022-08-11T13:26:46.818Z,100924.47
2022-08-11T13:29:22.472Z,100916.53
2022-08-11T13:31:52.538Z,100914.78
2022-08-11T13:34:22.409Z,100898.75
2022-08-11T13:36:53.142Z,100884.25
2022-08-11T13:39:24.974Z,100913.53
2022-08-11T13:41:56.974Z,100901.28
2022-08-11T13:44:28.163Z,100910.97
2022-08-11T13:46:59.183Z,100906.91
2022-08-11T13:49:27.876Z,100901.44
2022-08-11T13:51:57.340Z,100888.34
2022-08-11T13:54:28.537Z,100892.19
2022-08-11T13:57:01.542Z,100889.78
2022-08-11T13:59:31.435Z,100890.78
2022-08-11T14:02:21.631Z,100887.03
2022-08-11T14:04:56.485Z,100895.34
2022-08-11T14:07:27.017Z,100875.22
2022-08-11T14:09:59.891Z,100888.34
2022-08-11T14:12:48.657Z,100884.53
2022-08-11T14:15:22.957Z,100882.75
2022-08-11T14:17:56.075Z,100865.13
2022-08-11T14:20:39.601Z,100851.06
2022-08-11T14:23:12.684Z,100871.81
2022-08-11T14:26:03.898Z,100873.56
2022-08-11T14:28:41.493Z,100878.28
2022-08-11T14:31:14.229Z,100875.88
2022-08-11T14:33:59.613Z,100868.13
2022-08-11T14:36:36.285Z,100863.28
2022-08-11T14:39:08.185Z,100871.88
2022-08-11T14:42:11.399Z,100870.88
2022-08-11T14:45:01.390Z,100863.28
2022-08-11T14:47:31.670Z,100855.81
2022-08-11T14:50:09.931Z,100847.69
2022-08-11T14:52:44.767Z,100861.28
2022-08-11T14:55:32.507Z,100860.19
2022-08-11T14:58:03.518Z,100862.72
2022-08-11T15:00:34.253Z,100787.19
2022-08-11T15:03:12.615Z,100859.47
2022-08-11T15:05:56.177Z,100841.16
2022-08-11T15:08:47.312Z,100778.00
2022-08-11T15:11:34.570Z,100850.53
2022-08-11T15:14:08.585Z,100848.09
2022-08-11T15:17:10.493Z,100828.34
2022-08-11T15:20:04.136Z,100841.16
2022-08-11T15:22:49.658Z,100836.06
2022-08-11T15:25:19.849Z,100840.97
2022-08-11T15:28:09.151Z,100833.06
2022-08-11T15:30:56.676Z,100831.75
2022-08-11T15:33:45.454Z,100832.84
2022-08-11T15:36:33.188Z,100819.91
2022-08-11T15:39:05.208Z,100827.94
2022-08-11T15:42:03.708Z,100808.56
2022-08-11T15:45:03.239Z,100815.72
2022-08-11T15:47:41.689Z,100815.88
2022-08-11T15:50:15.533Z,100811.88
2022-08-11T15:52:50.743Z,100804.66
2022-08-11T15:55:20.549Z,100776.31
2022-08-11T15:58:08.624Z,100808.22
2022-08-11T16:01:03.719Z,100820.19
2022-08-11T16:04:07.093Z,100797.09
2022-08-11T16:06:46.351Z,100804.19
2022-08-11T16:09:22.185Z,100796.13
2022-08-11T16:11:52.307Z,100802.50
2022-08-11T16:14:39.260Z,100796.41
2022-08-11T16:17:11.183Z,100798.28
2022-08-11T16:19:42.162Z,100791.72
2022-08-11T16:22:13.144Z,100731.13
2022-08-11T16:27:01.428Z,100796.19
2022-08-11T16:27:36.915Z,100780.84
2022-08-11T16:30:06.950Z,100789.72
2022-08-11T16:32:36.793Z,100790.03
2022-08-11T16:35:24.844Z,100795.34
2022-08-11T16:38:12.735Z,100777.75
2022-08-11T16:40:42.803Z,100780.50
2022-08-11T16:43:33.756Z,100783.09
2022-08-11T16:46:33.576Z,100781.75
2022-08-11T16:49:04.003Z,100784.66
2022-08-11T16:51:34.253Z,100763.59
2022-08-11T16:54:05.116Z,100793.66
2022-08-11T16:56:37.449Z,100778.28
2022-08-11T16:59:15.620Z,100783.25
2022-08-11T17:01:48.301Z,100775.66
2022-08-11T17:04:47.587Z,100719.41
2022-08-11T17:07:42.386Z,100755.16
2022-08-11T17:10:51.959Z,100779.47
2022-08-11T17:13:29.125Z,100777.88
2022-08-11T17:16:11.798Z,100785.00
2022-08-11T17:18:46.720Z,100777.72
2022-08-11T17:21:21.009Z,100767.81
2022-08-11T17:23:54.928Z,100784.91
2022-08-11T17:26:27.949Z,100777.66
2022-08-11T17:29:00.363Z,100743.84
2022-08-11T17:31:56.136Z,100768.41
2022-08-11T17:34:41.958Z,100780.63
2022-08-11T17:37:09.989Z,100776.94
2022-08-11T17:39:41.022Z,100768.41
2022-08-11T17:42:28.107Z,100762.13
2022-08-11T17:45:14.318Z,100747.88
2022-08-11T17:48:00.703Z,100765.19
2022-08-11T17:50:29.612Z,100770.78
2022-08-11T17:53:16.731Z,100768.16
2022-08-11T17:56:05.054Z,100768.13
2022-08-11T17:58:51.283Z,100756.00
2022-08-11T18:01:21.015Z,100765.97
2022-08-11T18:03:53.094Z,100714.84
2022-08-11T18:06:34.155Z,100778.78
2022-08-11T18:09:22.985Z,100679.53
2022-08-11T18:12:12.921Z,100767.16
2022-08-11T18:15:02.838Z,100778.25
2022-08-11T18:17:48.549Z,100778.94
2022-08-11T18:20:34.160Z,100779.84
2022-08-11T18:23:46.143Z,100772.47
2022-08-11T18:26:30.872Z,100785.91
2022-08-11T18:29:18.630Z,100785.50
2022-08-11T18:32:08.435Z,100787.22
2022-08-11T18:34:59.112Z,100786.69
2022-08-11T18:37:46.951Z,100788.66
2022-08-11T18:40:36.264Z,100782.72
2022-08-11T18:43:27.374Z,100786.00
2022-08-11T18:46:19.620Z,100794.09
2022-08-11T18:49:13.124Z,100785.78
2022-08-11T18:52:05.599Z,100804.16
2022-08-11T18:54:55.415Z,100789.31
2022-08-11T18:57:49.765Z,100794.56
2022-08-11T19:00:40.454Z,100792.88
2022-08-11T19:03:29.827Z,100707.06
2022-08-11T19:06:38.901Z,100791.53
2022-08-11T19:09:26.332Z,100782.59
2022-08-11T19:12:13.561Z,100799.59
2022-08-11T19:15:00.881Z,100803.50
2022-08-11T19:17:49.018Z,100806.50
2022-08-11T19:20:39.065Z,100813.38
2022-08-11T19:23:27.231Z,100799.28
2022-08-11T19:26:13.314Z,100815.78
2022-08-11T19:29:02.663Z,100813.44
2022-08-11T19:31:49.220Z,100825.94
2022-08-11T19:34:37.106Z,100821.75
2022-08-11T19:37:25.861Z,100830.66
2022-08-11T19:40:13.361Z,100829.44
2022-08-11T19:43:01.470Z,100822.09
2022-08-11T19:45:52.279Z,100815.19
2022-08-11T19:48:40.718Z,100823.84
2022-08-11T19:51:29.130Z,100824.91
2022-08-11T19:54:17.177Z,100813.25
2022-08-11T19:57:04.222Z,100818.88
2022-08-11T19:59:50.525Z,100807.47
2022-08-11T20:02:36.408Z,100819.19
2022-08-11T20:05:23.099Z,100815.97
2022-08-11T20:08:09.344Z,100815.59
2022-08-11T20:10:57.006Z,100800.81
2022-08-11T20:13:45.373Z,100816.50
2022-08-11T20:16:34.308Z,100805.06
2022-08-11T20:19:25.921Z,100821.34
2022-08-11T20:22:26.241Z,100823.06
2022-08-11T20:25:13.286Z,100831.88
2022-08-11T20:28:02.547Z,100811.59
2022-08-11T20:30:48.901Z,100827.63
2022-08-11T20:33:39.280Z,100797.69
2022-08-11T20:36:26.317Z,100832.44
2022-08-11T20:39:12.695Z,100826.69
2022-08-11T20:41:59.654Z,100831.72
2022-08-11T20:44:48.734Z,100840.50
2022-08-11T20:47:56.155Z,100842.91
2022-08-11T20:50:42.470Z,100843.75
2022-08-11T20:53:35.877Z,100837.75
2022-08-11T20:56:28.598Z,100844.66
2022-08-11T20:59:19.010Z,100848.38
2022-08-11T21:02:10.681Z,100844.03
2022-08-11T21:04:57.446Z,100852.75
2022-08-11T21:07:55.225Z,100855.94
2022-08-11T21:10:44.566Z,100845.63
2022-08-11T21:13:34.399Z,100857.38
2022-08-11T21:16:26.312Z,100858.47
2022-08-11T21:20:00.764Z,100857.84
2022-08-11T21:22:31.914Z,100845.28
2022-08-11T21:25:19.841Z,100856.16
2022-08-11T21:28:09.033Z,100857.81
2022-08-11T21:30:57.770Z,100857.06
2022-08-11T21:33:46.252Z,100850.63
2022-08-11T21:36:33.376Z,100741.91
2022-08-11T21:39:20.633Z,100848.75
2022-08-11T21:42:12.207Z,100852.13
2022-08-11T21:44:59.798Z,100850.16
2022-08-11T21:47:47.054Z,100852.25
2022-08-11T21:50:32.502Z,100850.41
2022-08-11T21:53:19.728Z,100820.91
2022-08-11T21:56:06.466Z,100854.09
2022-08-11T21:58:53.082Z,100852.03
2022-08-11T22:01:40.391Z,100847.97
2022-08-11T22:04:26.261Z,100854.41
2022-08-11T22:07:12.831Z,100860.47
2022-08-11T22:10:00.230Z,100860.25
2022-08-11T22:12:45.661Z,100827.09
2022-08-11T22:15:32.336Z,100862.88
2022-08-11T22:18:20.239Z,100851.63
2022-08-11T22:21:07.128Z,100858.59
2022-08-11T22:23:59.418Z,100863.75
2022-08-11T22:26:47.784Z,100853.41
2022-08-11T22:29:50.123Z,100859.72
2022-08-11T22:32:37.893Z,100860.72
2022-08-11T22:35:28.412Z,100845.53
2022-08-11T22:38:15.799Z,100861.84
2022-08-11T22:41:01.594Z,100862.25
2022-08-11T22:43:48.739Z,100837.31
2022-08-11T22:46:37.329Z,100783.53
2022-08-11T22:49:23.071Z,100859.38
2022-08-11T22:52:09.182Z,100864.47
2022-08-11T22:54:56.587Z,100858.47
2022-08-11T22:57:46.582Z,100841.97
2022-08-11T23:00:48.993Z,100864.59
2022-08-11T23:03:38.264Z,100860.75
2022-08-11T23:06:25.477Z,100846.03
2022-08-11T23:09:12.247Z,100835.13
2022-08-11T23:12:07.348Z,100842.22
2022-08-11T23:14:58.476Z,100857.63
2022-08-11T23:17:46.565Z,100858.69
2022-08-11T23:20:39.437Z,100768.28
2022-08-11T23:23:32.761Z,100849.84
2022-08-11T23:26:19.023Z,100848.91
2022-08-11T23:29:05.977Z,100852.78
2022-08-11T23:31:53.945Z,100848.31
2022-08-11T23:35:03.333Z,100852.47
2022-08-11T23:37:51.284Z,100845.63
2022-08-11T23:40:36.688Z,100842.63
2022-08-11T23:43:23.033Z,100847.53
2022-08-11T23:46:08.570Z,100830.31
2022-08-11T23:48:55.914Z,100835.63
2022-08-11T23:51:44.300Z,100841.16
2022-08-11T23:54:35.120Z,100843.28
2022-08-11T23:57:23.268Z,100846.09
